Haley, North Dakota
Current Conditions -  °F | °C
As of 3:53 AM on Saturday 25 Oct 2014 (Local Time) from KHEI Reporting Station
Clear Clear  
Wind Chill: 34°   Ceiling: Unl
Heat Index: 38°   Visibility: 10mi
Dew Point: 30°   Wind: 5mph
Humidity: 73%   Direction: 310°NW
Pressure: 30.14"   Gusts: NA
Location:  46.1126°N, 103.12°W
Report Text: KHEI 250953Z AUTO 31004KT 10SM CLR 03/M01 A3014 RMK AO2 SLP212 T00331011
Loading
Personal Weather Stations






























Interactive Weather Map
Tropical Storm Tracking
New forecast layout! Learn more

10-Day Weather Forecast

Advertisements
Track Severe Weather on mobile